sensor_id;sensor_type;location;lat;lon;timestamp;temperature;humidity
41630;DHT22;27322;49.488;8.480;2022-08-19T00:01:41;22.90;98.40
41630;DHT22;27322;49.488;8.480;2022-08-19T00:04:10;22.90;98.60
41630;DHT22;27322;49.488;8.480;2022-08-19T00:06:39;22.90;98.60
41630;DHT22;27322;49.488;8.480;2022-08-19T00:09:08;22.90;98.50
41630;DHT22;27322;49.488;8.480;2022-08-19T00:11:34;22.90;98.40
41630;DHT22;27322;49.488;8.480;2022-08-19T00:14:02;22.80;98.30
41630;DHT22;27322;49.488;8.480;2022-08-19T00:16:28;22.80;98.30
41630;DHT22;27322;49.488;8.480;2022-08-19T00:18:55;22.80;98.30
41630;DHT22;27322;49.488;8.480;2022-08-19T00:21:21;22.80;98.30
41630;DHT22;27322;49.488;8.480;2022-08-19T00:23:47;22.80;98.40
41630;DHT22;27322;49.488;8.480;2022-08-19T00:26:13;22.80;98.50
41630;DHT22;27322;49.488;8.480;2022-08-19T00:28:39;22.80;98.30
41630;DHT22;27322;49.488;8.480;2022-08-19T00:31:06;22.80;98.40
41630;DHT22;27322;49.488;8.480;2022-08-19T00:33:33;22.80;98.40
41630;DHT22;27322;49.488;8.480;2022-08-19T00:36:05;22.80;98.40
41630;DHT22;27322;49.488;8.480;2022-08-19T00:38:32;22.80;98.50
41630;DHT22;27322;49.488;8.480;2022-08-19T00:40:58;22.80;98.30
41630;DHT22;27322;49.488;8.480;2022-08-19T00:43:25;22.90;98.30
41630;DHT22;27322;49.488;8.480;2022-08-19T00:45:51;22.80;98.30
41630;DHT22;27322;49.488;8.480;2022-08-19T00:48:18;22.80;98.20
41630;DHT22;27322;49.488;8.480;2022-08-19T00:50:46;22.80;98.40
41630;DHT22;27322;49.488;8.480;2022-08-19T00:53:15;22.80;98.30
41630;DHT22;27322;49.488;8.480;2022-08-19T00:55:45;22.80;98.50
41630;DHT22;27322;49.488;8.480;2022-08-19T00:58:15;22.80;98.50
41630;DHT22;27322;49.488;8.480;2022-08-19T01:00:43;22.70;98.50
41630;DHT22;27322;49.488;8.480;2022-08-19T01:03:14;22.70;98.50
41630;DHT22;27322;49.488;8.480;2022-08-19T01:05:43;22.70;98.50
41630;DHT22;27322;49.488;8.480;2022-08-19T01:08:09;22.70;98.60
41630;DHT22;27322;49.488;8.480;2022-08-19T01:10:54;22.70;98.70
41630;DHT22;27322;49.488;8.480;2022-08-19T01:13:24;22.70;98.80
41630;DHT22;27322;49.488;8.480;2022-08-19T01:16:04;22.70;98.60
41630;DHT22;27322;49.488;8.480;2022-08-19T01:18:31;22.70;98.60
41630;DHT22;27322;49.488;8.480;2022-08-19T01:21:02;22.70;98.70
41630;DHT22;27322;49.488;8.480;2022-08-19T01:23:28;22.70;98.70
41630;DHT22;27322;49.488;8.480;2022-08-19T01:26:11;22.70;98.80
41630;DHT22;27322;49.488;8.480;2022-08-19T01:28:37;22.70;98.80
41630;DHT22;27322;49.488;8.480;2022-08-19T01:31:04;22.70;98.70
41630;DHT22;27322;49.488;8.480;2022-08-19T01:33:30;22.70;98.80
41630;DHT22;27322;49.488;8.480;2022-08-19T01:36:11;22.60;98.80
41630;DHT22;27322;49.488;8.480;2022-08-19T01:38:39;22.60;98.80
41630;DHT22;27322;49.488;8.480;2022-08-19T01:41:07;22.60;98.80
41630;DHT22;27322;49.488;8.480;2022-08-19T01:43:33;22.60;99.00
41630;DHT22;27322;49.488;8.480;2022-08-19T01:46:00;22.60;98.90
41630;DHT22;27322;49.488;8.480;2022-08-19T01:48:26;22.60;99.00
41630;DHT22;27322;49.488;8.480;2022-08-19T01:50:54;22.60;98.90
41630;DHT22;27322;49.488;8.480;2022-08-19T01:53:20;22.60;98.90
41630;DHT22;27322;49.488;8.480;2022-08-19T01:55:46;22.60;98.90
41630;DHT22;27322;49.488;8.480;2022-08-19T01:58:17;22.60;98.80
41630;DHT22;27322;49.488;8.480;2022-08-19T02:00:44;22.60;98.70
41630;DHT22;27322;49.488;8.480;2022-08-19T02:03:11;22.60;98.70
41630;DHT22;27322;49.488;8.480;2022-08-19T02:05:37;22.60;98.60
41630;DHT22;27322;49.488;8.480;2022-08-19T02:08:04;22.60;98.80
41630;DHT22;27322;49.488;8.480;2022-08-19T02:10:30;22.60;98.90
41630;DHT22;27322;49.488;8.480;2022-08-19T02:12:56;22.60;98.70
41630;DHT22;27322;49.488;8.480;2022-08-19T02:15:21;22.70;98.20
41630;DHT22;27322;49.488;8.480;2022-08-19T02:17:48;22.70;98.30
41630;DHT22;27322;49.488;8.480;2022-08-19T02:20:15;22.70;98.50
41630;DHT22;27322;49.488;8.480;2022-08-19T02:22:41;22.60;98.50
41630;DHT22;27322;49.488;8.480;2022-08-19T02:25:09;22.60;98.60
41630;DHT22;27322;49.488;8.480;2022-08-19T02:27:35;22.60;98.60
41630;DHT22;27322;49.488;8.480;2022-08-19T02:30:05;22.60;98.70
41630;DHT22;27322;49.488;8.480;2022-08-19T02:32:31;22.60;98.60
41630;DHT22;27322;49.488;8.480;2022-08-19T02:34:57;22.50;98.60
41630;DHT22;27322;49.488;8.480;2022-08-19T02:37:23;22.50;98.60
41630;DHT22;27322;49.488;8.480;2022-08-19T02:40:08;22.50;98.70
41630;DHT22;27322;49.488;8.480;2022-08-19T02:42:33;22.50;98.80
41630;DHT22;27322;49.488;8.480;2022-08-19T02:44:59;22.50;98.80
41630;DHT22;27322;49.488;8.480;2022-08-19T02:47:25;22.50;98.80
41630;DHT22;27322;49.488;8.480;2022-08-19T02:49:51;22.50;98.80
41630;DHT22;27322;49.488;8.480;2022-08-19T02:52:16;22.40;98.90
41630;DHT22;27322;49.488;8.480;2022-08-19T02:54:42;22.40;98.90
41630;DHT22;27322;49.488;8.480;2022-08-19T02:57:09;22.40;99.10
41630;DHT22;27322;49.488;8.480;2022-08-19T02:59:35;22.40;99.00
41630;DHT22;27322;49.488;8.480;2022-08-19T03:02:01;22.40;98.90
41630;DHT22;27322;49.488;8.480;2022-08-19T03:04:27;22.40;98.90
41630;DHT22;27322;49.488;8.480;2022-08-19T03:06:52;22.40;99.00
41630;DHT22;27322;49.488;8.480;2022-08-19T03:09:19;22.40;99.10
41630;DHT22;27322;49.488;8.480;2022-08-19T03:11:46;22.30;99.10
41630;DHT22;27322;49.488;8.480;2022-08-19T03:14:12;22.40;99.10
41630;DHT22;27322;49.488;8.480;2022-08-19T03:16:50;22.30;99.20
41630;DHT22;27322;49.488;8.480;2022-08-19T03:19:17;22.40;99.20
41630;DHT22;27322;49.488;8.480;2022-08-19T03:21:44;22.30;99.20
41630;DHT22;27322;49.488;8.480;2022-08-19T03:24:11;22.30;99.30
41630;DHT22;27322;49.488;8.480;2022-08-19T03:26:42;22.30;99.40
41630;DHT22;27322;49.488;8.480;2022-08-19T03:29:09;22.30;99.50
41630;DHT22;27322;49.488;8.480;2022-08-19T03:31:37;22.30;99.40
41630;DHT22;27322;49.488;8.480;2022-08-19T03:34:04;22.30;99.20
41630;DHT22;27322;49.488;8.480;2022-08-19T03:36:30;22.30;99.20
41630;DHT22;27322;49.488;8.480;2022-08-19T03:38:58;22.30;99.30
41630;DHT22;27322;49.488;8.480;2022-08-19T03:41:29;22.30;99.30
41630;DHT22;27322;49.488;8.480;2022-08-19T03:43:56;22.30;99.30
41630;DHT22;27322;49.488;8.480;2022-08-19T03:46:28;22.30;99.40
41630;DHT22;27322;49.488;8.480;2022-08-19T03:48:56;22.20;99.40
41630;DHT22;27322;49.488;8.480;2022-08-19T03:51:29;22.20;99.40
41630;DHT22;27322;49.488;8.480;2022-08-19T03:53:57;22.20;99.50
41630;DHT22;27322;49.488;8.480;2022-08-19T03:56:23;22.20;99.30
41630;DHT22;27322;49.488;8.480;2022-08-19T03:58:52;22.20;99.40
41630;DHT22;27322;49.488;8.480;2022-08-19T04:01:20;22.20;99.40
41630;DHT22;27322;49.488;8.480;2022-08-19T04:03:47;22.10;99.40
41630;DHT22;27322;49.488;8.480;2022-08-19T04:06:20;22.10;99.50
41630;DHT22;27322;49.488;8.480;2022-08-19T04:08:48;22.10;99.70
41630;DHT22;27322;49.488;8.480;2022-08-19T04:11:19;22.10;99.80
41630;DHT22;27322;49.488;8.480;2022-08-19T04:13:47;22.00;99.80
41630;DHT22;27322;49.488;8.480;2022-08-19T04:16:13;22.10;99.80
41630;DHT22;27322;49.488;8.480;2022-08-19T04:18:40;22.10;99.90
41630;DHT22;27322;49.488;8.480;2022-08-19T04:21:07;22.00;99.80
41630;DHT22;27322;49.488;8.480;2022-08-19T04:23:34;22.10;99.80
41630;DHT22;27322;49.488;8.480;2022-08-19T04:26:01;22.10;99.60
41630;DHT22;27322;49.488;8.480;2022-08-19T04:28:27;22.10;99.50
41630;DHT22;27322;49.488;8.480;2022-08-19T04:30:54;22.10;99.60
41630;DHT22;27322;49.488;8.480;2022-08-19T04:33:23;22.10;99.60
41630;DHT22;27322;49.488;8.480;2022-08-19T04:35:50;22.10;99.60
41630;DHT22;27322;49.488;8.480;2022-08-19T04:38:19;22.00;99.90
41630;DHT22;27322;49.488;8.480;2022-08-19T04:40:50;22.00;99.90
41630;DHT22;27322;49.488;8.480;2022-08-19T04:43:36;22.00;99.70
41630;DHT22;27322;49.488;8.480;2022-08-19T04:46:06;22.00;99.80
41630;DHT22;27322;49.488;8.480;2022-08-19T04:48:34;22.00;99.80
41630;DHT22;27322;49.488;8.480;2022-08-19T04:50:59;22.10;99.80
41630;DHT22;27322;49.488;8.480;2022-08-19T04:53:30;22.00;99.80
41630;DHT22;27322;49.488;8.480;2022-08-19T04:55:59;22.00;99.80
41630;DHT22;27322;49.488;8.480;2022-08-19T04:58:29;22.10;99.90
41630;DHT22;27322;49.488;8.480;2022-08-19T05:00:55;22.10;99.80
41630;DHT22;27322;49.488;8.480;2022-08-19T05:03:21;22.20;99.60
41630;DHT22;27322;49.488;8.480;2022-08-19T05:05:48;22.10;99.60
41630;DHT22;27322;49.488;8.480;2022-08-19T05:08:17;22.10;99.70
41630;DHT22;27322;49.488;8.480;2022-08-19T05:10:49;22.10;99.20
41630;DHT22;27322;49.488;8.480;2022-08-19T05:13:17;22.20;99.30
41630;DHT22;27322;49.488;8.480;2022-08-19T05:15:44;22.20;99.40
41630;DHT22;27322;49.488;8.480;2022-08-19T05:18:10;22.20;99.40
41630;DHT22;27322;49.488;8.480;2022-08-19T05:20:54;22.20;99.40
41630;DHT22;27322;49.488;8.480;2022-08-19T05:23:38;22.30;99.50
41630;DHT22;27322;49.488;8.480;2022-08-19T05:26:04;22.30;99.30
41630;DHT22;27322;49.488;8.480;2022-08-19T05:28:30;22.30;99.30
41630;DHT22;27322;49.488;8.480;2022-08-19T05:30:56;22.40;99.30
41630;DHT22;27322;49.488;8.480;2022-08-19T05:33:22;22.40;99.10
41630;DHT22;27322;49.488;8.480;2022-08-19T05:35:48;22.40;99.10
41630;DHT22;27322;49.488;8.480;2022-08-19T05:38:18;22.40;98.90
41630;DHT22;27322;49.488;8.480;2022-08-19T05:40:44;22.40;99.00
41630;DHT22;27322;49.488;8.480;2022-08-19T05:43:13;22.50;99.00
41630;DHT22;27322;49.488;8.480;2022-08-19T05:45:43;22.50;99.10
41630;DHT22;27322;49.488;8.480;2022-08-19T05:48:10;22.50;98.80
41630;DHT22;27322;49.488;8.480;2022-08-19T05:50:37;22.60;98.80
41630;DHT22;27322;49.488;8.480;2022-08-19T05:53:04;22.60;98.70
41630;DHT22;27322;49.488;8.480;2022-08-19T05:55:30;22.60;98.90
41630;DHT22;27322;49.488;8.480;2022-08-19T05:57:56;22.60;98.90
41630;DHT22;27322;49.488;8.480;2022-08-19T06:00:22;22.70;98.80
41630;DHT22;27322;49.488;8.480;2022-08-19T06:02:48;22.70;98.90
41630;DHT22;27322;49.488;8.480;2022-08-19T06:05:13;22.70;99.00
41630;DHT22;27322;49.488;8.480;2022-08-19T06:07:39;22.70;98.60
41630;DHT22;27322;49.488;8.480;2022-08-19T06:10:08;22.70;98.60
41630;DHT22;27322;49.488;8.480;2022-08-19T06:12:35;22.70;98.70
41630;DHT22;27322;49.488;8.480;2022-08-19T06:15:07;22.80;98.80
41630;DHT22;27322;49.488;8.480;2022-08-19T06:17:34;22.80;98.80
41630;DHT22;27322;49.488;8.480;2022-08-19T06:20:01;22.80;98.70
41630;DHT22;27322;49.488;8.480;2022-08-19T06:22:28;22.90;98.60
41630;DHT22;27322;49.488;8.480;2022-08-19T06:24:55;22.90;98.50
41630;DHT22;27322;49.488;8.480;2022-08-19T06:27:21;23.00;98.40
41630;DHT22;27322;49.488;8.480;2022-08-19T06:29:47;23.00;98.40
41630;DHT22;27322;49.488;8.480;2022-08-19T06:32:15;23.00;98.50
41630;DHT22;27322;49.488;8.480;2022-08-19T06:34:42;23.10;98.50
41630;DHT22;27322;49.488;8.480;2022-08-19T06:37:08;23.10;98.50
41630;DHT22;27322;49.488;8.480;2022-08-19T06:39:36;23.10;98.80
41630;DHT22;27322;49.488;8.480;2022-08-19T06:42:05;23.10;98.80
41630;DHT22;27322;49.488;8.480;2022-08-19T06:44:34;23.10;98.60
41630;DHT22;27322;49.488;8.480;2022-08-19T06:47:04;23.20;98.00
41630;DHT22;27322;49.488;8.480;2022-08-19T06:49:30;23.20;98.30
41630;DHT22;27322;49.488;8.480;2022-08-19T06:51:59;23.20;98.30
41630;DHT22;27322;49.488;8.480;2022-08-19T06:54:25;23.20;98.30
41630;DHT22;27322;49.488;8.480;2022-08-19T06:56:52;23.20;98.00
41630;DHT22;27322;49.488;8.480;2022-08-19T06:59:20;23.20;97.70
41630;DHT22;27322;49.488;8.480;2022-08-19T07:01:51;23.20;97.80
41630;DHT22;27322;49.488;8.480;2022-08-19T07:04:20;23.20;98.00
41630;DHT22;27322;49.488;8.480;2022-08-19T07:06:46;23.10;97.90
41630;DHT22;27322;49.488;8.480;2022-08-19T07:09:15;23.10;98.00
41630;DHT22;27322;49.488;8.480;2022-08-19T07:11:45;23.10;98.00
41630;DHT22;27322;49.488;8.480;2022-08-19T07:14:11;23.00;98.10
41630;DHT22;27322;49.488;8.480;2022-08-19T07:16:37;23.10;98.10
41630;DHT22;27322;49.488;8.480;2022-08-19T07:19:03;23.10;98.20
41630;DHT22;27322;49.488;8.480;2022-08-19T07:21:29;23.20;98.10
41630;DHT22;27322;49.488;8.480;2022-08-19T07:23:56;23.20;98.20
41630;DHT22;27322;49.488;8.480;2022-08-19T07:26:27;23.20;98.10
41630;DHT22;27322;49.488;8.480;2022-08-19T07:28:53;23.30;98.00
41630;DHT22;27322;49.488;8.480;2022-08-19T07:31:22;23.40;97.80
41630;DHT22;27322;49.488;8.480;2022-08-19T07:33:50;23.50;97.70
41630;DHT22;27322;49.488;8.480;2022-08-19T07:36:22;23.40;97.80
41630;DHT22;27322;49.488;8.480;2022-08-19T07:38:49;23.50;97.50
41630;DHT22;27322;49.488;8.480;2022-08-19T07:41:19;23.50;97.50
41630;DHT22;27322;49.488;8.480;2022-08-19T07:43:45;23.50;97.60
41630;DHT22;27322;49.488;8.480;2022-08-19T07:46:12;23.60;97.30
41630;DHT22;27322;49.488;8.480;2022-08-19T07:48:40;23.50;97.30
41630;DHT22;27322;49.488;8.480;2022-08-19T07:51:07;23.60;97.30
41630;DHT22;27322;49.488;8.480;2022-08-19T07:53:34;23.60;97.40
41630;DHT22;27322;49.488;8.480;2022-08-19T07:56:00;23.60;97.00
41630;DHT22;27322;49.488;8.480;2022-08-19T07:58:34;23.60;97.30
41630;DHT22;27322;49.488;8.480;2022-08-19T08:01:01;23.70;97.40
41630;DHT22;27322;49.488;8.480;2022-08-19T08:03:27;23.80;96.90
41630;DHT22;27322;49.488;8.480;2022-08-19T08:06:14;23.90;96.80
41630;DHT22;27322;49.488;8.480;2022-08-19T08:08:58;23.90;96.60
41630;DHT22;27322;49.488;8.480;2022-08-19T08:11:46;23.80;96.80
41630;DHT22;27322;49.488;8.480;2022-08-19T08:14:27;23.90;97.00
41630;DHT22;27322;49.488;8.480;2022-08-19T08:16:53;23.90;96.90
41630;DHT22;27322;49.488;8.480;2022-08-19T08:19:21;23.90;96.90
41630;DHT22;27322;49.488;8.480;2022-08-19T08:21:48;23.90;96.90
41630;DHT22;27322;49.488;8.480;2022-08-19T08:24:14;23.90;96.80
41630;DHT22;27322;49.488;8.480;2022-08-19T08:26:40;24.00;96.90
41630;DHT22;27322;49.488;8.480;2022-08-19T08:29:06;24.20;96.70
41630;DHT22;27322;49.488;8.480;2022-08-19T08:31:35;24.40;96.40
41630;DHT22;27322;49.488;8.480;2022-08-19T08:34:01;24.60;96.10
41630;DHT22;27322;49.488;8.480;2022-08-19T08:36:27;24.60;95.70
41630;DHT22;27322;49.488;8.480;2022-08-19T08:38:53;24.80;95.30
41630;DHT22;27322;49.488;8.480;2022-08-19T08:44:20;24.90;94.60
41630;DHT22;27322;49.488;8.480;2022-08-19T08:46:51;25.00;94.70
41630;DHT22;27322;49.488;8.480;2022-08-19T08:52:34;25.10;94.00
41630;DHT22;27322;49.488;8.480;2022-08-19T08:55:07;25.20;93.80
41630;DHT22;27322;49.488;8.480;2022-08-19T08:57:55;25.40;93.60
41630;DHT22;27322;49.488;8.480;2022-08-19T09:00:25;25.60;93.30
41630;DHT22;27322;49.488;8.480;2022-08-19T09:02:52;25.70;93.20
41630;DHT22;27322;49.488;8.480;2022-08-19T09:05:20;25.60;93.10
41630;DHT22;27322;49.488;8.480;2022-08-19T09:07:53;25.60;93.20
41630;DHT22;27322;49.488;8.480;2022-08-19T09:10:30;25.80;93.20
41630;DHT22;27322;49.488;8.480;2022-08-19T09:13:12;26.00;92.50
41630;DHT22;27322;49.488;8.480;2022-08-19T09:16:06;26.10;92.30
41630;DHT22;27322;49.488;8.480;2022-08-19T09:18:47;26.20;92.20
41630;DHT22;27322;49.488;8.480;2022-08-19T09:21:15;26.30;91.80
41630;DHT22;27322;49.488;8.480;2022-08-19T09:23:41;26.30;91.20
41630;DHT22;27322;49.488;8.480;2022-08-19T09:26:14;26.30;91.30
41630;DHT22;27322;49.488;8.480;2022-08-19T09:28:41;26.20;91.20
41630;DHT22;27322;49.488;8.480;2022-08-19T09:31:12;26.20;91.10
41630;DHT22;27322;49.488;8.480;2022-08-19T09:33:38;26.10;91.20
41630;DHT22;27322;49.488;8.480;2022-08-19T09:36:06;26.20;91.10
41630;DHT22;27322;49.488;8.480;2022-08-19T09:38:34;26.30;91.20
41630;DHT22;27322;49.488;8.480;2022-08-19T09:41:26;26.20;91.10
41630;DHT22;27322;49.488;8.480;2022-08-19T09:43:53;26.20;91.20
41630;DHT22;27322;49.488;8.480;2022-08-19T09:46:22;26.10;91.50
41630;DHT22;27322;49.488;8.480;2022-08-19T09:48:49;26.10;91.40
41630;DHT22;27322;49.488;8.480;2022-08-19T09:51:19;26.10;91.30
41630;DHT22;27322;49.488;8.480;2022-08-19T09:53:46;26.00;91.20
41630;DHT22;27322;49.488;8.480;2022-08-19T09:56:16;26.10;91.10
41630;DHT22;27322;49.488;8.480;2022-08-19T09:58:42;26.20;90.70
41630;DHT22;27322;49.488;8.480;2022-08-19T10:01:08;26.50;90.50
41630;DHT22;27322;49.488;8.480;2022-08-19T10:03:35;26.80;89.40
41630;DHT22;27322;49.488;8.480;2022-08-19T10:06:03;26.80;89.40
41630;DHT22;27322;49.488;8.480;2022-08-19T10:08:33;26.60;89.60
41630;DHT22;27322;49.488;8.480;2022-08-19T10:11:00;26.50;90.00
41630;DHT22;27322;49.488;8.480;2022-08-19T10:13:28;26.40;90.70
41630;DHT22;27322;49.488;8.480;2022-08-19T10:15:57;26.40;90.30
41630;DHT22;27322;49.488;8.480;2022-08-19T10:18:27;26.50;89.80
41630;DHT22;27322;49.488;8.480;2022-08-19T10:23:33;26.60;87.70
41630;DHT22;27322;49.488;8.480;2022-08-19T10:26:00;26.70;87.00
41630;DHT22;27322;49.488;8.480;2022-08-19T10:28:25;26.80;86.90
41630;DHT22;27322;49.488;8.480;2022-08-19T10:30:51;26.90;87.00
41630;DHT22;27322;49.488;8.480;2022-08-19T10:33:17;26.90;86.90
41630;DHT22;27322;49.488;8.480;2022-08-19T10:35:43;26.80;86.90
41630;DHT22;27322;49.488;8.480;2022-08-19T10:38:12;26.70;87.80
41630;DHT22;27322;49.488;8.480;2022-08-19T10:40:38;26.60;88.70
41630;DHT22;27322;49.488;8.480;2022-08-19T10:43:03;26.50;89.10
41630;DHT22;27322;49.488;8.480;2022-08-19T10:45:29;26.50;89.10
41630;DHT22;27322;49.488;8.480;2022-08-19T10:47:55;26.50;89.10
41630;DHT22;27322;49.488;8.480;2022-08-19T10:50:24;26.80;87.80
41630;DHT22;27322;49.488;8.480;2022-08-19T10:53:08;26.90;88.00
41630;DHT22;27322;49.488;8.480;2022-08-19T10:55:34;27.00;87.00
41630;DHT22;27322;49.488;8.480;2022-08-19T10:58:21;27.00;86.30
41630;DHT22;27322;49.488;8.480;2022-08-19T11:00:58;27.10;85.40
41630;DHT22;27322;49.488;8.480;2022-08-19T11:03:25;27.20;85.30
41630;DHT22;27322;49.488;8.480;2022-08-19T11:06:06;27.50;84.40
41630;DHT22;27322;49.488;8.480;2022-08-19T11:08:33;27.60;81.80
41630;DHT22;27322;49.488;8.480;2022-08-19T11:11:01;27.60;81.90
41630;DHT22;27322;49.488;8.480;2022-08-19T11:13:33;27.50;82.40
41630;DHT22;27322;49.488;8.480;2022-08-19T11:16:04;27.50;81.10
41630;DHT22;27322;49.488;8.480;2022-08-19T11:18:32;27.50;81.00
41630;DHT22;27322;49.488;8.480;2022-08-19T11:21:19;27.60;80.20
41630;DHT22;27322;49.488;8.480;2022-08-19T11:23:47;27.80;79.60
41630;DHT22;27322;49.488;8.480;2022-08-19T11:26:14;27.90;78.10
41630;DHT22;27322;49.488;8.480;2022-08-19T11:28:40;27.90;77.20
41630;DHT22;27322;49.488;8.480;2022-08-19T11:31:18;27.70;77.60
41630;DHT22;27322;49.488;8.480;2022-08-19T11:33:45;27.60;76.60
41630;DHT22;27322;49.488;8.480;2022-08-19T11:36:12;27.60;76.10
41630;DHT22;27322;49.488;8.480;2022-08-19T11:38:37;27.60;76.00
41630;DHT22;27322;49.488;8.480;2022-08-19T11:41:06;27.60;76.80
41630;DHT22;27322;49.488;8.480;2022-08-19T11:43:33;27.50;77.10
41630;DHT22;27322;49.488;8.480;2022-08-19T11:45:59;27.50;76.80
41630;DHT22;27322;49.488;8.480;2022-08-19T11:48:25;27.60;77.20
41630;DHT22;27322;49.488;8.480;2022-08-19T11:50:53;27.60;76.80
41630;DHT22;27322;49.488;8.480;2022-08-19T11:53:20;27.50;76.60
41630;DHT22;27322;49.488;8.480;2022-08-19T11:55:47;27.40;76.70
41630;DHT22;27322;49.488;8.480;2022-08-19T11:58:15;27.50;76.10
41630;DHT22;27322;49.488;8.480;2022-08-19T12:00:42;27.50;75.40
41630;DHT22;27322;49.488;8.480;2022-08-19T12:03:08;27.40;74.00
41630;DHT22;27322;49.488;8.480;2022-08-19T12:05:36;27.40;73.60
41630;DHT22;27322;49.488;8.480;2022-08-19T12:08:02;27.40;74.30
41630;DHT22;27322;49.488;8.480;2022-08-19T12:10:28;27.50;74.10
41630;DHT22;27322;49.488;8.480;2022-08-19T12:12:53;27.50;73.40
41630;DHT22;27322;49.488;8.480;2022-08-19T12:15:19;27.60;70.90
41630;DHT22;27322;49.488;8.480;2022-08-19T12:17:45;27.60;70.40
41630;DHT22;27322;49.488;8.480;2022-08-19T12:20:12;27.60;70.50
41630;DHT22;27322;49.488;8.480;2022-08-19T12:22:43;27.70;71.00
41630;DHT22;27322;49.488;8.480;2022-08-19T12:25:11;27.70;68.50
41630;DHT22;27322;49.488;8.480;2022-08-19T12:27:37;27.80;68.60
41630;DHT22;27322;49.488;8.480;2022-08-19T12:30:06;27.90;68.90
41630;DHT22;27322;49.488;8.480;2022-08-19T12:32:33;27.90;69.50
41630;DHT22;27322;49.488;8.480;2022-08-19T12:34:58;27.80;68.30
41630;DHT22;27322;49.488;8.480;2022-08-19T12:37:24;27.70;67.40
41630;DHT22;27322;49.488;8.480;2022-08-19T12:39:50;27.60;67.70
41630;DHT22;27322;49.488;8.480;2022-08-19T12:42:16;27.60;66.50
41630;DHT22;27322;49.488;8.480;2022-08-19T12:44:44;27.60;66.40
41630;DHT22;27322;49.488;8.480;2022-08-19T12:47:11;27.70;65.60
41630;DHT22;27322;49.488;8.480;2022-08-19T12:49:37;27.70;66.30
41630;DHT22;27322;49.488;8.480;2022-08-19T12:52:06;27.70;66.30
41630;DHT22;27322;49.488;8.480;2022-08-19T12:54:33;27.70;66.30
41630;DHT22;27322;49.488;8.480;2022-08-19T12:56:59;27.80;65.30
41630;DHT22;27322;49.488;8.480;2022-08-19T12:59:26;27.90;64.50
41630;DHT22;27322;49.488;8.480;2022-08-19T13:01:52;28.00;64.10
41630;DHT22;27322;49.488;8.480;2022-08-19T13:04:17;28.00;63.80
41630;DHT22;27322;49.488;8.480;2022-08-19T13:06:43;27.90;63.90
41630;DHT22;27322;49.488;8.480;2022-08-19T13:09:09;27.80;64.20
41630;DHT22;27322;49.488;8.480;2022-08-19T13:11:36;27.60;64.50
41630;DHT22;27322;49.488;8.480;2022-08-19T13:14:02;27.50;64.80
41630;DHT22;27322;49.488;8.480;2022-08-19T13:16:29;27.40;64.80
41630;DHT22;27322;49.488;8.480;2022-08-19T13:18:56;27.40;65.20
41630;DHT22;27322;49.488;8.480;2022-08-19T13:21:25;27.30;64.50
41630;DHT22;27322;49.488;8.480;2022-08-19T13:23:51;27.30;64.90
41630;DHT22;27322;49.488;8.480;2022-08-19T13:26:18;27.30;63.60
41630;DHT22;27322;49.488;8.480;2022-08-19T13:28:45;27.30;63.90
41630;DHT22;27322;49.488;8.480;2022-08-19T13:31:32;27.50;64.10
41630;DHT22;27322;49.488;8.480;2022-08-19T13:34:19;27.70;63.90
41630;DHT22;27322;49.488;8.480;2022-08-19T13:36:52;27.80;63.90
41630;DHT22;27322;49.488;8.480;2022-08-19T13:39:18;27.90;62.90
41630;DHT22;27322;49.488;8.480;2022-08-19T13:41:45;28.00;62.20
41630;DHT22;27322;49.488;8.480;2022-08-19T13:44:16;28.10;62.70
41630;DHT22;27322;49.488;8.480;2022-08-19T13:46:44;28.30;62.00
41630;DHT22;27322;49.488;8.480;2022-08-19T13:49:12;28.80;61.20
41630;DHT22;27322;49.488;8.480;2022-08-19T13:51:39;29.70;60.00
41630;DHT22;27322;49.488;8.480;2022-08-19T13:54:06;31.30;56.90
41630;DHT22;27322;49.488;8.480;2022-08-19T13:56:32;33.00;52.90
41630;DHT22;27322;49.488;8.480;2022-08-19T13:58:58;33.80;49.90
41630;DHT22;27322;49.488;8.480;2022-08-19T14:01:24;33.60;49.70
41630;DHT22;27322;49.488;8.480;2022-08-19T14:03:50;33.10;50.30
41630;DHT22;27322;49.488;8.480;2022-08-19T14:06:15;32.50;50.70
41630;DHT22;27322;49.488;8.480;2022-08-19T14:08:42;32.00;52.10
41630;DHT22;27322;49.488;8.480;2022-08-19T14:11:08;31.50;53.10
41630;DHT22;27322;49.488;8.480;2022-08-19T14:13:34;31.10;51.80
41630;DHT22;27322;49.488;8.480;2022-08-19T14:16:00;30.70;53.60
41630;DHT22;27322;49.488;8.480;2022-08-19T14:18:26;30.90;54.40
41630;DHT22;27322;49.488;8.480;2022-08-19T14:20:52;31.50;53.10
41630;DHT22;27322;49.488;8.480;2022-08-19T14:23:19;32.00;51.50
41630;DHT22;27322;49.488;8.480;2022-08-19T14:25:45;31.90;50.60
41630;DHT22;27322;49.488;8.480;2022-08-19T14:28:11;31.80;50.40
41630;DHT22;27322;49.488;8.480;2022-08-19T14:30:37;31.60;52.40
41630;DHT22;27322;49.488;8.480;2022-08-19T14:33:04;31.40;52.60
41630;DHT22;27322;49.488;8.480;2022-08-19T14:35:32;31.30;51.80
41630;DHT22;27322;49.488;8.480;2022-08-19T14:38:00;31.40;50.20
41630;DHT22;27322;49.488;8.480;2022-08-19T14:40:28;31.60;50.60
41630;DHT22;27322;49.488;8.480;2022-08-19T14:43:00;32.00;50.30
41630;DHT22;27322;49.488;8.480;2022-08-19T14:45:31;32.40;50.90
41630;DHT22;27322;49.488;8.480;2022-08-19T14:47:58;32.60;48.50
41630;DHT22;27322;49.488;8.480;2022-08-19T14:50:25;32.40;49.50
41630;DHT22;27322;49.488;8.480;2022-08-19T14:52:58;32.50;49.30
41630;DHT22;27322;49.488;8.480;2022-08-19T14:55:24;32.80;47.90
41630;DHT22;27322;49.488;8.480;2022-08-19T14:57:50;33.10;49.50
41630;DHT22;27322;49.488;8.480;2022-08-19T15:00:16;33.20;47.10
41630;DHT22;27322;49.488;8.480;2022-08-19T15:02:42;33.00;47.00
41630;DHT22;27322;49.488;8.480;2022-08-19T15:05:12;32.70;48.40
41630;DHT22;27322;49.488;8.480;2022-08-19T15:07:38;32.30;49.20
41630;DHT22;27322;49.488;8.480;2022-08-19T15:10:05;31.90;50.10
41630;DHT22;27322;49.488;8.480;2022-08-19T15:12:35;31.60;48.90
41630;DHT22;27322;49.488;8.480;2022-08-19T15:15:01;31.20;48.90
41630;DHT22;27322;49.488;8.480;2022-08-19T15:17:26;30.90;49.20
41630;DHT22;27322;49.488;8.480;2022-08-19T15:19:52;30.60;48.80
41630;DHT22;27322;49.488;8.480;2022-08-19T15:22:18;30.40;50.40
41630;DHT22;27322;49.488;8.480;2022-08-19T15:24:43;30.20;51.10
41630;DHT22;27322;49.488;8.480;2022-08-19T15:27:12;29.90;51.30
41630;DHT22;27322;49.488;8.480;2022-08-19T15:29:38;29.70;53.70
41630;DHT22;27322;49.488;8.480;2022-08-19T15:32:06;29.40;53.20
41630;DHT22;27322;49.488;8.480;2022-08-19T15:34:33;29.30;51.90
41630;DHT22;27322;49.488;8.480;2022-08-19T15:37:00;29.10;52.70
41630;DHT22;27322;49.488;8.480;2022-08-19T15:39:25;29.10;52.50
41630;DHT22;27322;49.488;8.480;2022-08-19T15:41:51;29.00;53.50
41630;DHT22;27322;49.488;8.480;2022-08-19T15:44:18;29.00;52.40
41630;DHT22;27322;49.488;8.480;2022-08-19T15:46:46;29.00;53.10